sensor_id;sensor_type;location;lat;lon;timestamp;temperature;humidity
32895;DHT22;19251;49.484;8.260;2022-07-23T00:09:59;25.60;20.80
32895;DHT22;19251;49.484;8.260;2022-07-23T00:15:02;25.50;20.40
32895;DHT22;19251;49.484;8.260;2022-07-23T00:20:07;25.50;20.30
32895;DHT22;19251;49.484;8.260;2022-07-23T00:30:30;25.50;20.00
32895;DHT22;19251;49.484;8.260;2022-07-23T00:35:37;25.50;20.30
32895;DHT22;19251;49.484;8.260;2022-07-23T00:40:42;25.60;20.30
32895;DHT22;19251;49.484;8.260;2022-07-23T00:45:45;25.60;20.70
32895;DHT22;19251;49.484;8.260;2022-07-23T00:50:47;25.50;20.60
32895;DHT22;19251;49.484;8.260;2022-07-23T00:55:50;25.50;20.70
32895;DHT22;19251;49.484;8.260;2022-07-23T01:00:52;25.50;20.80
32895;DHT22;19251;49.484;8.260;2022-07-23T01:05:54;25.40;21.00
32895;DHT22;19251;49.484;8.260;2022-07-23T01:10:57;25.30;20.80
32895;DHT22;19251;49.484;8.260;2022-07-23T01:16:02;25.20;21.00
32895;DHT22;19251;49.484;8.260;2022-07-23T01:21:04;25.20;21.20
32895;DHT22;19251;49.484;8.260;2022-07-23T01:31:16;25.00;21.50
32895;DHT22;19251;49.484;8.260;2022-07-23T01:36:19;25.00;21.60
32895;DHT22;19251;49.484;8.260;2022-07-23T01:41:21;25.00;21.50
32895;DHT22;19251;49.484;8.260;2022-07-23T01:46:25;25.00;22.00
32895;DHT22;19251;49.484;8.260;2022-07-23T01:51:27;25.00;21.80
32895;DHT22;19251;49.484;8.260;2022-07-23T01:56:31;24.90;22.20
32895;DHT22;19251;49.484;8.260;2022-07-23T02:06:37;24.80;22.20
32895;DHT22;19251;49.484;8.260;2022-07-23T02:11:40;24.80;22.10
32895;DHT22;19251;49.484;8.260;2022-07-23T02:16:42;24.80;22.10
32895;DHT22;19251;49.484;8.260;2022-07-23T02:21:45;24.90;22.00
32895;DHT22;19251;49.484;8.260;2022-07-23T02:26:47;24.90;21.80
32895;DHT22;19251;49.484;8.260;2022-07-23T02:36:52;25.00;21.80
32895;DHT22;19251;49.484;8.260;2022-07-23T02:41:55;25.00;21.90
32895;DHT22;19251;49.484;8.260;2022-07-23T02:46:58;25.00;22.00
32895;DHT22;19251;49.484;8.260;2022-07-23T02:52:01;25.00;22.10
32895;DHT22;19251;49.484;8.260;2022-07-23T02:57:05;24.90;22.20
32895;DHT22;19251;49.484;8.260;2022-07-23T03:07:10;24.80;22.20
32895;DHT22;19251;49.484;8.260;2022-07-23T03:12:12;24.80;22.60
32895;DHT22;19251;49.484;8.260;2022-07-23T03:17:16;24.70;22.70
32895;DHT22;19251;49.484;8.260;2022-07-23T03:27:24;24.60;22.90
32895;DHT22;19251;49.484;8.260;2022-07-23T03:32:27;24.60;23.20
32895;DHT22;19251;49.484;8.260;2022-07-23T03:37:30;24.50;23.40
32895;DHT22;19251;49.484;8.260;2022-07-23T03:42:32;24.50;23.70
32895;DHT22;19251;49.484;8.260;2022-07-23T03:47:37;24.40;23.70
32895;DHT22;19251;49.484;8.260;2022-07-23T03:52:41;24.40;24.30
32895;DHT22;19251;49.484;8.260;2022-07-23T03:57:43;24.40;24.30
32895;DHT22;19251;49.484;8.260;2022-07-23T04:02:46;24.40;24.60
32895;DHT22;19251;49.484;8.260;2022-07-23T04:12:52;24.30;24.90
32895;DHT22;19251;49.484;8.260;2022-07-23T04:17:55;24.20;25.70
32895;DHT22;19251;49.484;8.260;2022-07-23T04:23:00;24.10;26.10
32895;DHT22;19251;49.484;8.260;2022-07-23T04:28:03;24.00;26.30
32895;DHT22;19251;49.484;8.260;2022-07-23T04:33:06;24.00;26.90
32895;DHT22;19251;49.484;8.260;2022-07-23T04:38:10;23.90;26.60
32895;DHT22;19251;49.484;8.260;2022-07-23T04:43:13;23.90;26.90
32895;DHT22;19251;49.484;8.260;2022-07-23T04:48:15;23.80;27.40
32895;DHT22;19251;49.484;8.260;2022-07-23T04:53:19;23.80;27.80
32895;DHT22;19251;49.484;8.260;2022-07-23T04:58:22;23.70;28.50
32895;DHT22;19251;49.484;8.260;2022-07-23T05:08:27;23.60;28.70
32895;DHT22;19251;49.484;8.260;2022-07-23T05:13:30;23.60;28.90
32895;DHT22;19251;49.484;8.260;2022-07-23T05:28:38;23.60;29.00
32895;DHT22;19251;49.484;8.260;2022-07-23T05:33:43;23.60;29.40
32895;DHT22;19251;49.484;8.260;2022-07-23T05:38:45;23.60;29.30
32895;DHT22;19251;49.484;8.260;2022-07-23T05:48:50;23.70;29.70
32895;DHT22;19251;49.484;8.260;2022-07-23T05:53:56;23.70;29.70
32895;DHT22;19251;49.484;8.260;2022-07-23T05:59:02;23.80;30.00
32895;DHT22;19251;49.484;8.260;2022-07-23T06:04:05;23.90;30.00
32895;DHT22;19251;49.484;8.260;2022-07-23T06:09:08;24.10;30.20
32895;DHT22;19251;49.484;8.260;2022-07-23T06:14:13;24.30;30.20
32895;DHT22;19251;49.484;8.260;2022-07-23T06:19:16;24.40;30.00
32895;DHT22;19251;49.484;8.260;2022-07-23T06:29:23;24.70;29.70
32895;DHT22;19251;49.484;8.260;2022-07-23T06:34:25;24.80;29.30
32895;DHT22;19251;49.484;8.260;2022-07-23T06:39:29;24.80;29.30
32895;DHT22;19251;49.484;8.260;2022-07-23T06:44:32;24.90;29.80
32895;DHT22;19251;49.484;8.260;2022-07-23T06:54:37;24.90;30.00
32895;DHT22;19251;49.484;8.260;2022-07-23T06:59:39;25.00;29.70
32895;DHT22;19251;49.484;8.260;2022-07-23T07:09:46;25.10;29.20
32895;DHT22;19251;49.484;8.260;2022-07-23T07:14:49;25.10;29.00
32895;DHT22;19251;49.484;8.260;2022-07-23T07:19:52;25.20;28.70
32895;DHT22;19251;49.484;8.260;2022-07-23T07:24:54;25.30;28.40
32895;DHT22;19251;49.484;8.260;2022-07-23T07:34:59;25.50;28.10
32895;DHT22;19251;49.484;8.260;2022-07-23T07:50:07;25.80;26.70
32895;DHT22;19251;49.484;8.260;2022-07-23T08:00:13;26.00;25.30
32895;DHT22;19251;49.484;8.260;2022-07-23T08:05:24;26.20;25.50
32895;DHT22;19251;49.484;8.260;2022-07-23T08:10:30;26.30;25.50
32895;DHT22;19251;49.484;8.260;2022-07-23T08:20:36;26.70;25.70
32895;DHT22;19251;49.484;8.260;2022-07-23T08:25:40;26.90;24.90
32895;DHT22;19251;49.484;8.260;2022-07-23T08:30:44;27.10;25.50
32895;DHT22;19251;49.484;8.260;2022-07-23T08:35:48;27.40;23.90
32895;DHT22;19251;49.484;8.260;2022-07-23T08:40:54;27.60;23.20
32895;DHT22;19251;49.484;8.260;2022-07-23T08:46:00;27.70;23.00
32895;DHT22;19251;49.484;8.260;2022-07-23T08:51:04;27.90;22.40
32895;DHT22;19251;49.484;8.260;2022-07-23T08:56:12;28.10;22.40
32895;DHT22;19251;49.484;8.260;2022-07-23T09:01:14;28.20;22.00
32895;DHT22;19251;49.484;8.260;2022-07-23T09:06:17;28.40;22.00
32895;DHT22;19251;49.484;8.260;2022-07-23T09:11:19;28.60;21.20
32895;DHT22;19251;49.484;8.260;2022-07-23T09:16:30;28.80;19.90
32895;DHT22;19251;49.484;8.260;2022-07-23T09:21:39;29.00;19.60
32895;DHT22;19251;49.484;8.260;2022-07-23T09:32:02;29.20;18.80
32895;DHT22;19251;49.484;8.260;2022-07-23T09:37:12;29.40;18.90
32895;DHT22;19251;49.484;8.260;2022-07-23T09:42:20;29.60;18.00
32895;DHT22;19251;49.484;8.260;2022-07-23T09:47:25;29.80;18.70
32895;DHT22;19251;49.484;8.260;2022-07-23T09:52:29;29.90;17.70
32895;DHT22;19251;49.484;8.260;2022-07-23T09:57:38;30.00;17.60
32895;DHT22;19251;49.484;8.260;2022-07-23T10:02:46;30.30;17.00
32895;DHT22;19251;49.484;8.260;2022-07-23T10:08:07;30.20;16.90
32895;DHT22;19251;49.484;8.260;2022-07-23T10:13:14;30.20;15.70
32895;DHT22;19251;49.484;8.260;2022-07-23T10:18:25;30.30;16.00
32895;DHT22;19251;49.484;8.260;2022-07-23T10:23:30;30.70;15.50
32895;DHT22;19251;49.484;8.260;2022-07-23T10:39:38;31.30;13.90
32895;DHT22;19251;49.484;8.260;2022-07-23T10:49:48;31.60;13.60
32895;DHT22;19251;49.484;8.260;2022-07-23T10:54:56;31.80;12.90
32895;DHT22;19251;49.484;8.260;2022-07-23T11:00:25;32.00;12.00
32895;DHT22;19251;49.484;8.260;2022-07-23T11:05:41;32.30;11.40
32895;DHT22;19251;49.484;8.260;2022-07-23T11:37:04;33.30;10.00
32895;DHT22;19251;49.484;8.260;2022-07-23T11:42:07;33.40;9.20
32895;DHT22;19251;49.484;8.260;2022-07-23T11:47:10;33.30;8.60
32895;DHT22;19251;49.484;8.260;2022-07-23T11:52:15;33.00;9.20
32895;DHT22;19251;49.484;8.260;2022-07-23T11:57:19;32.60;11.60
32895;DHT22;19251;49.484;8.260;2022-07-23T12:02:24;32.00;12.70
32895;DHT22;19251;49.484;8.260;2022-07-23T12:12:50;31.20;14.90
32895;DHT22;19251;49.484;8.260;2022-07-23T12:17:53;31.00;16.90
32895;DHT22;19251;49.484;8.260;2022-07-23T12:23:04;31.10;16.10
32895;DHT22;19251;49.484;8.260;2022-07-23T12:28:09;31.40;17.10
32895;DHT22;19251;49.484;8.260;2022-07-23T12:33:23;31.80;17.30
32895;DHT22;19251;49.484;8.260;2022-07-23T12:38:28;32.30;15.50
32895;DHT22;19251;49.484;8.260;2022-07-23T12:43:40;32.70;15.90
32895;DHT22;19251;49.484;8.260;2022-07-23T12:54:08;33.40;15.00
32895;DHT22;19251;49.484;8.260;2022-07-23T12:59:13;33.70;13.90
32895;DHT22;19251;49.484;8.260;2022-07-23T13:09:26;34.40;10.30
32895;DHT22;19251;49.484;8.260;2022-07-23T13:14:33;34.50;10.10
32895;DHT22;19251;49.484;8.260;2022-07-23T13:34:46;33.90;11.80
32895;DHT22;19251;49.484;8.260;2022-07-23T13:39:51;33.40;12.30
32895;DHT22;19251;49.484;8.260;2022-07-23T13:49:56;33.40;12.10
32895;DHT22;19251;49.484;8.260;2022-07-23T13:55:02;33.80;10.20
32895;DHT22;19251;49.484;8.260;2022-07-23T14:00:09;34.20;10.80
32895;DHT22;19251;49.484;8.260;2022-07-23T14:05:34;35.20;10.30
32895;DHT22;19251;49.484;8.260;2022-07-23T14:10:37;35.90;8.10
32895;DHT22;19251;49.484;8.260;2022-07-23T14:15:41;36.50;8.60
32895;DHT22;19251;49.484;8.260;2022-07-23T14:20:44;36.60;6.00
32895;DHT22;19251;49.484;8.260;2022-07-23T14:30:50;36.70;5.60
32895;DHT22;19251;49.484;8.260;2022-07-23T14:40:55;37.60;4.20
32895;DHT22;19251;49.484;8.260;2022-07-23T14:45:58;38.40;2.20
32895;DHT22;19251;49.484;8.260;2022-07-23T14:51:04;39.20;1.10
32895;DHT22;19251;49.484;8.260;2022-07-23T15:01:16;40.60;1.00
32895;DHT22;19251;49.484;8.260;2022-07-23T15:11:22;41.20;1.00
32895;DHT22;19251;49.484;8.260;2022-07-23T15:16:27;40.70;1.00
32895;DHT22;19251;49.484;8.260;2022-07-23T15:21:30;40.10;1.00
32895;DHT22;19251;49.484;8.260;2022-07-23T15:26:32;39.40;1.00
32895;DHT22;19251;49.484;8.260;2022-07-23T15:31:36;39.30;1.00
32895;DHT22;19251;49.484;8.260;2022-07-23T15:36:39;39.40;1.00
32895;DHT22;19251;49.484;8.260;2022-07-23T15:41:43;39.20;1.00
32895;DHT22;19251;49.484;8.260;2022-07-23T15:51:47;39.10;1.00
32895;DHT22;19251;49.484;8.260;2022-07-23T15:56:50;39.00;1.00
32895;DHT22;19251;49.484;8.260;2022-07-23T16:11:58;37.50;1.00
32895;DHT22;19251;49.484;8.260;2022-07-23T16:17:01;36.90;1.00
32895;DHT22;19251;49.484;8.260;2022-07-23T16:22:03;36.40;1.00
32895;DHT22;19251;49.484;8.260;2022-07-23T16:32:09;35.30;1.90
32895;DHT22;19251;49.484;8.260;2022-07-23T16:37:11;34.90;3.20
32895;DHT22;19251;49.484;8.260;2022-07-23T16:42:13;34.50;3.60
32895;DHT22;19251;49.484;8.260;2022-07-23T16:47:16;34.10;4.10
32895;DHT22;19251;49.484;8.260;2022-07-23T16:52:21;33.90;4.60
32895;DHT22;19251;49.484;8.260;2022-07-23T17:02:26;33.50;6.50
32895;DHT22;19251;49.484;8.260;2022-07-23T17:12:34;33.30;7.10
32895;DHT22;19251;49.484;8.260;2022-07-23T17:17:41;33.20;7.30
32895;DHT22;19251;49.484;8.260;2022-07-23T17:28:00;32.70;7.70
32895;DHT22;19251;49.484;8.260;2022-07-23T17:48:23;32.00;9.00
32895;DHT22;19251;49.484;8.260;2022-07-23T17:53:33;31.90;9.50
32895;DHT22;19251;49.484;8.260;2022-07-23T18:03:39;31.50;9.50
32895;DHT22;19251;49.484;8.260;2022-07-23T18:08:41;31.50;10.10
32895;DHT22;19251;49.484;8.260;2022-07-23T18:13:43;31.60;10.60
32895;DHT22;19251;49.484;8.260;2022-07-23T18:18:48;31.60;10.40
32895;DHT22;19251;49.484;8.260;2022-07-23T18:23:50;31.50;10.10
32895;DHT22;19251;49.484;8.260;2022-07-23T18:28:53;31.30;10.20
32895;DHT22;19251;49.484;8.260;2022-07-23T18:33:55;31.10;10.50
32895;DHT22;19251;49.484;8.260;2022-07-23T18:38:57;30.90;10.60
32895;DHT22;19251;49.484;8.260;2022-07-23T18:44:05;30.60;11.10
32895;DHT22;19251;49.484;8.260;2022-07-23T18:49:07;30.30;11.50
32895;DHT22;19251;49.484;8.260;2022-07-23T18:54:11;30.00;11.80
32895;DHT22;19251;49.484;8.260;2022-07-23T18:59:15;29.80;11.90
32895;DHT22;19251;49.484;8.260;2022-07-23T19:04:24;29.50;12.10
32895;DHT22;19251;49.484;8.260;2022-07-23T19:14:35;29.10;13.20
32895;DHT22;19251;49.484;8.260;2022-07-23T19:19:38;29.00;12.90
32895;DHT22;19251;49.484;8.260;2022-07-23T19:24:40;28.80;13.00
32895;DHT22;19251;49.484;8.260;2022-07-23T19:29:44;28.60;13.10
32895;DHT22;19251;49.484;8.260;2022-07-23T19:34:46;28.40;14.00
32895;DHT22;19251;49.484;8.260;2022-07-23T19:39:48;28.10;13.90
32895;DHT22;19251;49.484;8.260;2022-07-23T19:44:50;28.00;14.10
32895;DHT22;19251;49.484;8.260;2022-07-23T19:49:55;27.70;15.00
32895;DHT22;19251;49.484;8.260;2022-07-23T19:54:57;27.70;15.10
32895;DHT22;19251;49.484;8.260;2022-07-23T19:59:59;27.50;15.70
32895;DHT22;19251;49.484;8.260;2022-07-23T20:05:06;27.40;16.70
32895;DHT22;19251;49.484;8.260;2022-07-23T20:10:09;27.30;17.10
32895;DHT22;19251;49.484;8.260;2022-07-23T20:20:15;27.20;17.60
32895;DHT22;19251;49.484;8.260;2022-07-23T20:25:17;27.10;17.40
32895;DHT22;19251;49.484;8.260;2022-07-23T20:30:19;27.00;16.90
32895;DHT22;19251;49.484;8.260;2022-07-23T20:35:23;26.90;16.70
32895;DHT22;19251;49.484;8.260;2022-07-23T20:40:25;26.80;16.50
32895;DHT22;19251;49.484;8.260;2022-07-23T20:45:28;26.70;16.60
32895;DHT22;19251;49.484;8.260;2022-07-23T20:50:30;26.70;16.40
32895;DHT22;19251;49.484;8.260;2022-07-23T21:00:35;26.60;15.90
32895;DHT22;19251;49.484;8.260;2022-07-23T21:15:44;26.30;15.80
32895;DHT22;19251;49.484;8.260;2022-07-23T21:26:12;26.00;16.60
32895;DHT22;19251;49.484;8.260;2022-07-23T21:31:34;25.90;16.70
32895;DHT22;19251;49.484;8.260;2022-07-23T21:36:36;25.70;17.20
32895;DHT22;19251;49.484;8.260;2022-07-23T21:46:41;25.60;17.90
32895;DHT22;19251;49.484;8.260;2022-07-23T21:56:47;25.50;18.20
32895;DHT22;19251;49.484;8.260;2022-07-23T22:01:51;25.40;18.20
32895;DHT22;19251;49.484;8.260;2022-07-23T22:06:53;25.30;18.10
32895;DHT22;19251;49.484;8.260;2022-07-23T22:16:58;25.20;18.20
32895;DHT22;19251;49.484;8.260;2022-07-23T22:32:05;24.90;19.00
32895;DHT22;19251;49.484;8.260;2022-07-23T22:37:07;24.80;18.70
32895;DHT22;19251;49.484;8.260;2022-07-23T22:47:12;24.50;18.60
32895;DHT22;19251;49.484;8.260;2022-07-23T22:52:14;24.40;18.70
32895;DHT22;19251;49.484;8.260;2022-07-23T22:57:17;24.30;18.60
32895;DHT22;19251;49.484;8.260;2022-07-23T23:02:19;24.30;18.80
32895;DHT22;19251;49.484;8.260;2022-07-23T23:07:21;24.10;19.00
32895;DHT22;19251;49.484;8.260;2022-07-23T23:12:24;24.10;19.30
32895;DHT22;19251;49.484;8.260;2022-07-23T23:22:29;23.90;19.20
32895;DHT22;19251;49.484;8.260;2022-07-23T23:27:32;23.90;19.40
32895;DHT22;19251;49.484;8.260;2022-07-23T23:47:42;23.60;19.80
32895;DHT22;19251;49.484;8.260;2022-07-23T23:57:47;23.40;20.10
